»·PEaware :: N3144V L52-L88

N3144V :: L52-L88

FLIGHT INFORMATION

Flight Status: Arrived
Operator: Privately registered:
United States
More flights under this callsign
Pilot: Peter S. (28770)
Aircraft: CESSNA 172 SKYHAWK
(C172)
More flights by this aircraft type
Origin: L52 Oceano Co
United States
Destination: L88 New Cuyama
United States
More flights between these airports :: More routes between these airports
Route: L52 WYNNR L88
File this flight plan on PilotEdge
Remarks:
Altitude:
(Current/Filed)
6,000ft
Speed:
(Current/Filed)
124kts
Departed: 09-Apr-20 08:43 PM
Arrived: 09-Apr-20 10:27 PM
Distance/Time
Traveled:
47nm/1:44
Distance/Time
To Go:
Arrived

Flight Plot

Page will automatically refresh every two minutes.


Map Options




Map Legend


Flown Route
Filed Route
Departure Airport
Arrival Airport
Navaid (VOR, NDB)
Fix

Horizontal Profiles

Position Reports

Time Latitude Longitude Heading Altitude Ground
Speed
09-Apr-20 20:34 35.102274 -120.622530 210 15ft 0kts
09-Apr-20 20:35 35.102274 -120.622530 210 15ft 0kts
09-Apr-20 20:36 35.102274 -120.622530 210 15ft 0kts
09-Apr-20 20:37 35.102406 -120.623020 306 15ft 9kts
09-Apr-20 20:38 35.102459 -120.623005 96 15ft 0kts
09-Apr-20 20:39 35.102221 -120.624824 245 14ft 0kts
09-Apr-20 20:40 35.102849 -120.625580 325 14ft 0kts
09-Apr-20 20:41 35.103081 -120.625550 36 14ft 0kts
09-Apr-20 20:42 35.101328 -120.621880 125 100ft 54kts
09-Apr-20 20:43 35.097045 -120.603341 69 1046ft 60kts
09-Apr-20 20:44 35.098045 -120.585322 136 1818ft 77kts
09-Apr-20 20:45 35.084137 -120.566576 109 2838ft 80kts
09-Apr-20 20:46 35.078745 -120.540628 105 3940ft 64kts
09-Apr-20 20:47 35.076779 -120.521592 96 4735ft 50kts
09-Apr-20 20:48 35.075987 -120.500750 96 5295ft 74kts
09-Apr-20 20:49 35.074467 -120.474711 97 5975ft 89kts
09-Apr-20 20:50 35.074499 -120.436505 88 6086ft 125kts
09-Apr-20 20:51 35.076742 -120.406258 88 6014ft 67kts
09-Apr-20 20:52 35.081503 -120.388202 46 6155ft 63kts
09-Apr-20 20:53 35.085669 -120.366031 87 6783ft 69kts
09-Apr-20 20:54 35.087925 -120.335545 88 6327ft 119kts
09-Apr-20 20:55 35.090368 -120.294393 88 6161ft 118kts
09-Apr-20 20:56 35.092793 -120.254986 88 6178ft 116kts
09-Apr-20 20:57 35.101127 -120.216735 75 6177ft 116kts
09-Apr-20 20:58 35.108308 -120.178076 108 6086ft 117kts
09-Apr-20 20:59 35.096496 -120.141985 112 6117ft 113kts
09-Apr-20 21:00 35.085256 -120.105361 113 6168ft 115kts
09-Apr-20 21:01 35.066090 -120.073729 120 6226ft 115kts
09-Apr-20 21:02 35.048948 -120.038970 120 6171ft 120kts
09-Apr-20 21:03 35.031917 -120.004248 116 6193ft 118kts
09-Apr-20 21:04 35.017591 -119.966978 114 6136ft 124kts
09-Apr-20 21:05 35.003052 -119.929482 114 6188ft 121kts
09-Apr-20 21:06 34.988320 -119.892110 114 6211ft 122kts
09-Apr-20 21:07 34.973285 -119.854484 113 6221ft 123kts
09-Apr-20 21:08 34.957593 -119.815458 114 5915ft 129kts
09-Apr-20 21:09 34.942034 -119.776030 111 5018ft 127kts
09-Apr-20 21:10 34.929550 -119.738932 110 3708ft 115kts
09-Apr-20 21:11 34.918078 -119.702895 102 3629ft 108kts
09-Apr-20 21:12 34.932206 -119.690151 24 4746ft 69kts
09-Apr-20 21:13 34.953177 -119.686164 14 4670ft 121kts
09-Apr-20 21:14 34.971408 -119.710945 230 4606ft 104kts
09-Apr-20 21:15 34.949300 -119.702744 84 3429ft 103kts
09-Apr-20 21:16 34.944287 -119.696979 118 2347ft 105kts
09-Apr-20 21:17 34.943648 -119.674701 27 3276ft 79kts
09-Apr-20 21:18 34.960308 -119.693880 278 3942ft 112kts
09-Apr-20 21:19 34.952750 -119.718672 121 4254ft 56kts
09-Apr-20 21:21 34.944179 -119.691873 119 3184ft 112kts
09-Apr-20 21:22 34.959114 -119.684514 325 3035ft 108kts
09-Apr-20 21:23 34.962580 -119.706852 160 2950ft 83kts
09-Apr-20 21:24 34.946035 -119.695202 173 2396ft 64kts
09-Apr-20 21:38 35.102274 -120.622530 210 16ft 0kts
09-Apr-20 21:40 35.102274 -120.622530 210 16ft 0kts
09-Apr-20 21:41 35.102321 -120.622951 316 15ft 3kts
09-Apr-20 21:41 35.103522 -120.624982 271 14ft 0kts
09-Apr-20 21:42 35.103522 -120.624982 271 14ft 0kts
09-Apr-20 21:44 35.103375 -120.625260 206 14ft 0kts
09-Apr-20 21:44 35.098300 -120.617225 134 306ft 74kts
09-Apr-20 21:45 35.083059 -120.601014 161 1484ft 75kts
09-Apr-20 21:46 35.069003 -120.588211 91 2538ft 64kts
09-Apr-20 21:47 35.066164 -120.566768 78 3474ft 63kts
09-Apr-20 21:48 35.068001 -120.546161 89 4241ft 59kts
09-Apr-20 21:49 35.064483 -120.526208 101 4827ft 70kts
09-Apr-20 21:50 35.059950 -120.501209 101 5440ft 71kts
09-Apr-20 21:51 35.057959 -120.477775 86 5960ft 67kts
09-Apr-20 21:52 35.059816 -120.453222 86 6214ft 89kts
09-Apr-20 21:53 35.061875 -120.424108 86 6865ft 70kts
09-Apr-20 21:54 35.064550 -120.380932 87 6055ft 138kts
09-Apr-20 21:55 35.067318 -120.335993 87 5647ft 126kts
09-Apr-20 21:56 35.070168 -120.290770 87 4992ft 117kts
09-Apr-20 21:57 35.072818 -120.252508 86 4732ft 93kts
09-Apr-20 21:58 35.075047 -120.226797 86 5164ft 79kts
09-Apr-20 21:59 35.076919 -120.204282 87 5564ft 48kts
09-Apr-20 22:00 35.079537 -120.180260 86 5688ft 117kts
09-Apr-20 22:01 35.082054 -120.138838 86 6013ft 125kts
09-Apr-20 22:02 35.083593 -120.094706 87 5856ft 144kts
09-Apr-20 22:03 35.075354 -120.049085 139 5409ft 148kts
09-Apr-20 22:04 35.051394 -120.010829 122 5280ft 141kts
09-Apr-20 22:05 35.030468 -119.971529 119 5235ft 125kts
09-Apr-20 22:06 35.010848 -119.933809 119 4655ft 139kts
09-Apr-20 22:07 34.992501 -119.897854 119 4646ft 92kts
09-Apr-20 22:08 34.976398 -119.866443 119 4403ft 125kts
09-Apr-20 22:09 34.959534 -119.829610 108 4955ft 112kts
09-Apr-20 22:10 34.956003 -119.792897 99 4636ft 114kts
09-Apr-20 22:11 34.954223 -119.757034 92 3529ft 106kts
09-Apr-20 22:12 34.947222 -119.728672 97 3155ft 77kts
09-Apr-20 22:13 34.962323 -119.713323 342 2878ft 63kts
09-Apr-20 22:14 34.969268 -119.728591 213 2789ft 64kts
09-Apr-20 22:15 34.955216 -119.722830 127 2911ft 59kts
09-Apr-20 22:16 34.939071 -119.718722 133 3105ft 67kts
09-Apr-20 22:17 34.933916 -119.697912 100 3265ft 66kts
09-Apr-20 22:18 34.935076 -119.676744 60 3084ft 63kts
09-Apr-20 22:19 34.941829 -119.684229 307 2572ft 60kts
09-Apr-20 22:20 34.949705 -119.704719 279 2775ft 75kts
09-Apr-20 22:21 34.947514 -119.707224 346 2712ft 97kts
09-Apr-20 22:22 34.937863 -119.714331 153 3118ft 82kts
09-Apr-20 22:23 34.933116 -119.684469 134 3363ft 110kts
09-Apr-20 22:24 34.925343 -119.669669 321 3436ft 77kts
09-Apr-20 22:25 34.929708 -119.682917 47 2716ft 59kts
09-Apr-20 22:26 34.938104 -119.680349 187 2199ft 1kts

Navigation Log

Ident Type
Flight plan parsing failed, navigation log unavailable